sensor_id;sensor_type;location;lat;lon;timestamp;P1;durP1;ratioP1;P2;durP2;ratioP2
71646;SDS011;59706;45.634;11.704;2023-04-03T00:00:50;16.00;;;9.30;;
71646;SDS011;59706;45.634;11.704;2023-04-03T00:03:19;14.90;;;9.00;;
71646;SDS011;59706;45.634;11.704;2023-04-03T00:05:46;14.50;;;8.50;;
71646;SDS011;59706;45.634;11.704;2023-04-03T00:08:14;13.50;;;8.70;;
71646;SDS011;59706;45.634;11.704;2023-04-03T00:10:41;13.50;;;8.40;;
71646;SDS011;59706;45.634;11.704;2023-04-03T00:13:09;13.80;;;8.50;;
71646;SDS011;59706;45.634;11.704;2023-04-03T00:15:36;16.00;;;9.00;;
71646;SDS011;59706;45.634;11.704;2023-04-03T00:18:04;14.60;;;8.70;;
71646;SDS011;59706;45.634;11.704;2023-04-03T00:20:31;13.30;;;8.10;;
71646;SDS011;59706;45.634;11.704;2023-04-03T00:23:00;14.10;;;8.50;;
71646;SDS011;59706;45.634;11.704;2023-04-03T00:25:27;13.10;;;8.60;;
71646;SDS011;59706;45.634;11.704;2023-04-03T00:27:55;14.90;;;8.10;;
71646;SDS011;59706;45.634;11.704;2023-04-03T00:30:23;14.00;;;7.80;;
71646;SDS011;59706;45.634;11.704;2023-04-03T00:32:51;12.60;;;7.40;;
71646;SDS011;59706;45.634;11.704;2023-04-03T00:35:20;13.50;;;7.80;;
71646;SDS011;59706;45.634;11.704;2023-04-03T00:37:50;14.40;;;7.40;;
71646;SDS011;59706;45.634;11.704;2023-04-03T00:40:18;13.00;;;7.50;;
71646;SDS011;59706;45.634;11.704;2023-04-03T00:42:46;14.40;;;7.70;;
71646;SDS011;59706;45.634;11.704;2023-04-03T00:47:40;12.10;;;6.40;;
71646;SDS011;59706;45.634;11.704;2023-04-03T00:50:08;11.00;;;6.70;;
71646;SDS011;59706;45.634;11.704;2023-04-03T00:52:37;12.90;;;7.00;;
71646;SDS011;59706;45.634;11.704;2023-04-03T00:55:08;11.20;;;6.00;;
71646;SDS011;59706;45.634;11.704;2023-04-03T00:57:35;10.50;;;5.90;;
71646;SDS011;59706;45.634;11.704;2023-04-03T01:00:11;11.00;;;6.30;;
71646;SDS011;59706;45.634;11.704;2023-04-03T01:02:40;11.30;;;6.10;;
71646;SDS011;59706;45.634;11.704;2023-04-03T01:05:07;11.20;;;6.20;;
71646;SDS011;59706;45.634;11.704;2023-04-03T01:07:34;12.10;;;6.70;;
71646;SDS011;59706;45.634;11.704;2023-04-03T01:10:06;11.60;;;7.00;;
71646;SDS011;59706;45.634;11.704;2023-04-03T01:12:37;11.30;;;6.40;;
71646;SDS011;59706;45.634;11.704;2023-04-03T01:15:19;12.50;;;6.50;;
71646;SDS011;59706;45.634;11.704;2023-04-03T01:18:09;11.50;;;6.50;;
71646;SDS011;59706;45.634;11.704;2023-04-03T01:26:22;10.10;;;6.20;;
71646;SDS011;59706;45.634;11.704;2023-04-03T01:28:49;13.20;;;6.40;;
71646;SDS011;59706;45.634;11.704;2023-04-03T01:31:27;12.40;;;6.30;;
71646;SDS011;59706;45.634;11.704;2023-04-03T01:34:09;10.30;;;6.20;;
71646;SDS011;59706;45.634;11.704;2023-04-03T01:36:36;10.90;;;6.20;;
71646;SDS011;59706;45.634;11.704;2023-04-03T01:39:04;12.60;;;6.80;;
71646;SDS011;59706;45.634;11.704;2023-04-03T01:41:31;12.30;;;6.70;;
71646;SDS011;59706;45.634;11.704;2023-04-03T01:43:58;11.30;;;6.20;;
71646;SDS011;59706;45.634;11.704;2023-04-03T01:46:26;9.90;;;5.70;;
71646;SDS011;59706;45.634;11.704;2023-04-03T01:48:53;10.30;;;5.90;;
71646;SDS011;59706;45.634;11.704;2023-04-03T01:51:20;13.00;;;7.00;;
71646;SDS011;59706;45.634;11.704;2023-04-03T01:53:47;13.10;;;6.50;;
71646;SDS011;59706;45.634;11.704;2023-04-03T01:56:14;11.60;;;6.40;;
71646;SDS011;59706;45.634;11.704;2023-04-03T01:58:42;11.30;;;5.50;;
71646;SDS011;59706;45.634;11.704;2023-04-03T02:01:09;10.70;;;5.90;;
71646;SDS011;59706;45.634;11.704;2023-04-03T02:03:36;11.40;;;6.10;;
71646;SDS011;59706;45.634;11.704;2023-04-03T02:06:04;9.80;;;5.60;;
71646;SDS011;59706;45.634;11.704;2023-04-03T02:08:33;11.50;;;5.80;;
71646;SDS011;59706;45.634;11.704;2023-04-03T02:11:00;9.80;;;5.60;;
71646;SDS011;59706;45.634;11.704;2023-04-03T02:13:27;10.80;;;5.70;;
71646;SDS011;59706;45.634;11.704;2023-04-03T02:15:54;11.60;;;6.60;;
71646;SDS011;59706;45.634;11.704;2023-04-03T02:18:22;10.70;;;5.60;;
71646;SDS011;59706;45.634;11.704;2023-04-03T02:20:49;10.60;;;5.50;;
71646;SDS011;59706;45.634;11.704;2023-04-03T02:23:17;10.30;;;5.80;;
71646;SDS011;59706;45.634;11.704;2023-04-03T02:25:44;10.30;;;5.80;;
71646;SDS011;59706;45.634;11.704;2023-04-03T02:28:11;10.20;;;5.40;;
71646;SDS011;59706;45.634;11.704;2023-04-03T02:30:38;11.20;;;5.70;;
71646;SDS011;59706;45.634;11.704;2023-04-03T02:33:05;11.00;;;5.80;;
71646;SDS011;59706;45.634;11.704;2023-04-03T02:35:33;11.10;;;5.90;;
71646;SDS011;59706;45.634;11.704;2023-04-03T02:38:00;10.20;;;5.60;;
71646;SDS011;59706;45.634;11.704;2023-04-03T02:40:27;11.50;;;5.90;;
71646;SDS011;59706;45.634;11.704;2023-04-03T02:42:54;9.70;;;5.60;;
71646;SDS011;59706;45.634;11.704;2023-04-03T02:45:21;9.70;;;5.50;;
71646;SDS011;59706;45.634;11.704;2023-04-03T02:47:48;11.30;;;5.70;;
71646;SDS011;59706;45.634;11.704;2023-04-03T02:50:16;10.80;;;5.20;;
71646;SDS011;59706;45.634;11.704;2023-04-03T02:52:43;11.80;;;5.60;;
71646;SDS011;59706;45.634;11.704;2023-04-03T02:55:14;9.80;;;4.90;;
71646;SDS011;59706;45.634;11.704;2023-04-03T02:57:41;8.30;;;4.00;;
71646;SDS011;59706;45.634;11.704;2023-04-03T03:00:10;8.20;;;3.90;;
71646;SDS011;59706;45.634;11.704;2023-04-03T03:02:38;8.00;;;3.40;;
71646;SDS011;59706;45.634;11.704;2023-04-03T03:05:06;6.80;;;3.30;;
71646;SDS011;59706;45.634;11.704;2023-04-03T03:07:35;7.60;;;3.00;;
71646;SDS011;59706;45.634;11.704;2023-04-03T03:10:02;9.90;;;3.30;;
71646;SDS011;59706;45.634;11.704;2023-04-03T03:12:31;7.00;;;2.90;;
71646;SDS011;59706;45.634;11.704;2023-04-03T03:14:58;8.30;;;3.60;;
71646;SDS011;59706;45.634;11.704;2023-04-03T03:17:25;6.80;;;3.10;;
71646;SDS011;59706;45.634;11.704;2023-04-03T03:19:53;6.80;;;3.20;;
71646;SDS011;59706;45.634;11.704;2023-04-03T03:22:20;8.20;;;3.20;;
71646;SDS011;59706;45.634;11.704;2023-04-03T03:24:48;8.10;;;3.10;;
71646;SDS011;59706;45.634;11.704;2023-04-03T03:27:15;6.80;;;2.90;;
71646;SDS011;59706;45.634;11.704;2023-04-03T03:29:42;8.30;;;3.20;;
71646;SDS011;59706;45.634;11.704;2023-04-03T03:32:09;7.10;;;3.10;;
71646;SDS011;59706;45.634;11.704;2023-04-03T03:34:37;8.20;;;3.50;;
71646;SDS011;59706;45.634;11.704;2023-04-03T03:37:04;9.20;;;3.20;;
71646;SDS011;59706;45.634;11.704;2023-04-03T03:39:32;7.50;;;3.00;;
71646;SDS011;59706;45.634;11.704;2023-04-03T03:41:59;7.70;;;2.80;;
71646;SDS011;59706;45.634;11.704;2023-04-03T03:44:27;7.40;;;3.00;;
71646;SDS011;59706;45.634;11.704;2023-04-03T03:46:54;7.00;;;2.60;;
71646;SDS011;59706;45.634;11.704;2023-04-03T03:49:22;7.00;;;3.10;;
71646;SDS011;59706;45.634;11.704;2023-04-03T03:51:49;8.80;;;2.50;;
71646;SDS011;59706;45.634;11.704;2023-04-03T03:54:17;9.00;;;3.10;;
71646;SDS011;59706;45.634;11.704;2023-04-03T03:56:44;9.10;;;2.40;;
71646;SDS011;59706;45.634;11.704;2023-04-03T03:59:12;7.20;;;2.40;;
71646;SDS011;59706;45.634;11.704;2023-04-03T04:01:39;7.70;;;2.70;;
71646;SDS011;59706;45.634;11.704;2023-04-03T04:04:07;7.90;;;2.40;;
71646;SDS011;59706;45.634;11.704;2023-04-03T04:06:34;6.00;;;1.90;;
71646;SDS011;59706;45.634;11.704;2023-04-03T04:09:01;6.50;;;2.70;;
71646;SDS011;59706;45.634;11.704;2023-04-03T04:11:29;6.80;;;2.40;;
71646;SDS011;59706;45.634;11.704;2023-04-03T04:13:57;7.70;;;2.40;;
71646;SDS011;59706;45.634;11.704;2023-04-03T04:16:24;6.70;;;2.20;;
71646;SDS011;59706;45.634;11.704;2023-04-03T04:18:51;8.20;;;2.70;;
71646;SDS011;59706;45.634;11.704;2023-04-03T04:21:19;5.80;;;1.90;;
71646;SDS011;59706;45.634;11.704;2023-04-03T04:23:46;7.60;;;2.20;;
71646;SDS011;59706;45.634;11.704;2023-04-03T04:26:12;6.40;;;2.10;;
71646;SDS011;59706;45.634;11.704;2023-04-03T04:28:40;7.70;;;1.90;;
71646;SDS011;59706;45.634;11.704;2023-04-03T04:31:07;8.10;;;2.80;;
71646;SDS011;59706;45.634;11.704;2023-04-03T04:33:34;9.40;;;4.00;;
71646;SDS011;59706;45.634;11.704;2023-04-03T04:36:02;10.00;;;4.90;;
71646;SDS011;59706;45.634;11.704;2023-04-03T04:38:29;10.30;;;4.80;;
71646;SDS011;59706;45.634;11.704;2023-04-03T04:40:57;10.10;;;4.40;;
71646;SDS011;59706;45.634;11.704;2023-04-03T04:43:24;8.40;;;3.90;;
71646;SDS011;59706;45.634;11.704;2023-04-03T04:46:04;9.30;;;4.30;;
71646;SDS011;59706;45.634;11.704;2023-04-03T04:50:14;12.20;;;5.00;;
71646;SDS011;59706;45.634;11.704;2023-04-03T04:52:41;9.20;;;3.60;;
71646;SDS011;59706;45.634;11.704;2023-04-03T04:55:09;7.90;;;3.00;;
71646;SDS011;59706;45.634;11.704;2023-04-03T04:57:38;7.90;;;3.70;;
71646;SDS011;59706;45.634;11.704;2023-04-03T05:00:08;8.20;;;2.80;;
71646;SDS011;59706;45.634;11.704;2023-04-03T05:02:37;7.80;;;3.30;;
71646;SDS011;59706;45.634;11.704;2023-04-03T05:05:07;9.20;;;3.40;;
71646;SDS011;59706;45.634;11.704;2023-04-03T05:07:36;8.70;;;3.10;;
71646;SDS011;59706;45.634;11.704;2023-04-03T05:10:05;9.70;;;3.80;;
71646;SDS011;59706;45.634;11.704;2023-04-03T05:12:37;9.70;;;4.00;;
71646;SDS011;59706;45.634;11.704;2023-04-03T05:15:06;14.80;;;4.00;;
71646;SDS011;59706;45.634;11.704;2023-04-03T05:17:35;8.30;;;3.20;;
71646;SDS011;59706;45.634;11.704;2023-04-03T05:20:03;9.50;;;3.00;;
71646;SDS011;59706;45.634;11.704;2023-04-03T05:22:32;12.80;;;3.20;;
71646;SDS011;59706;45.634;11.704;2023-04-03T05:25:00;17.10;;;3.30;;
71646;SDS011;59706;45.634;11.704;2023-04-03T05:27:28;14.00;;;3.10;;
71646;SDS011;59706;45.634;11.704;2023-04-03T05:29:56;20.80;;;4.10;;
71646;SDS011;59706;45.634;11.704;2023-04-03T05:32:24;18.00;;;3.00;;
71646;SDS011;59706;45.634;11.704;2023-04-03T05:34:53;11.90;;;3.00;;
71646;SDS011;59706;45.634;11.704;2023-04-03T05:37:21;11.70;;;3.10;;
71646;SDS011;59706;45.634;11.704;2023-04-03T05:39:48;16.60;;;2.90;;
71646;SDS011;59706;45.634;11.704;2023-04-03T05:42:16;8.40;;;2.60;;
71646;SDS011;59706;45.634;11.704;2023-04-03T05:44:44;10.40;;;2.80;;
71646;SDS011;59706;45.634;11.704;2023-04-03T05:47:13;8.20;;;3.00;;
71646;SDS011;59706;45.634;11.704;2023-04-03T05:49:40;8.90;;;2.70;;
71646;SDS011;59706;45.634;11.704;2023-04-03T05:52:21;9.10;;;2.70;;
71646;SDS011;59706;45.634;11.704;2023-04-03T05:54:48;14.20;;;3.10;;
71646;SDS011;59706;45.634;11.704;2023-04-03T05:57:16;12.00;;;3.20;;
71646;SDS011;59706;45.634;11.704;2023-04-03T05:59:44;8.50;;;2.70;;
71646;SDS011;59706;45.634;11.704;2023-04-03T06:02:14;8.50;;;2.80;;
71646;SDS011;59706;45.634;11.704;2023-04-03T06:04:43;6.40;;;2.30;;
71646;SDS011;59706;45.634;11.704;2023-04-03T06:07:15;8.70;;;2.20;;
71646;SDS011;59706;45.634;11.704;2023-04-03T06:09:43;10.10;;;2.20;;
71646;SDS011;59706;45.634;11.704;2023-04-03T06:12:10;9.00;;;2.10;;
71646;SDS011;59706;45.634;11.704;2023-04-03T06:14:38;9.60;;;2.00;;
71646;SDS011;59706;45.634;11.704;2023-04-03T06:17:07;6.70;;;2.30;;
71646;SDS011;59706;45.634;11.704;2023-04-03T06:19:35;7.30;;;2.40;;
71646;SDS011;59706;45.634;11.704;2023-04-03T06:22:02;7.30;;;2.10;;
71646;SDS011;59706;45.634;11.704;2023-04-03T06:24:30;7.30;;;2.00;;
71646;SDS011;59706;45.634;11.704;2023-04-03T06:26:57;10.60;;;2.10;;
71646;SDS011;59706;45.634;11.704;2023-04-03T06:29:25;7.60;;;2.50;;
71646;SDS011;59706;45.634;11.704;2023-04-03T06:31:52;6.20;;;2.20;;
71646;SDS011;59706;45.634;11.704;2023-04-03T06:34:19;7.00;;;2.10;;
71646;SDS011;59706;45.634;11.704;2023-04-03T06:36:47;5.70;;;1.80;;
71646;SDS011;59706;45.634;11.704;2023-04-03T06:39:20;7.80;;;2.10;;
71646;SDS011;59706;45.634;11.704;2023-04-03T06:41:48;8.40;;;1.80;;
71646;SDS011;59706;45.634;11.704;2023-04-03T06:44:17;5.90;;;2.20;;
71646;SDS011;59706;45.634;11.704;2023-04-03T06:46:44;6.50;;;2.10;;
71646;SDS011;59706;45.634;11.704;2023-04-03T06:49:12;9.00;;;1.90;;
71646;SDS011;59706;45.634;11.704;2023-04-03T06:51:40;6.30;;;1.70;;
71646;SDS011;59706;45.634;11.704;2023-04-03T06:54:08;6.30;;;1.70;;
71646;SDS011;59706;45.634;11.704;2023-04-03T06:56:35;5.80;;;1.90;;
71646;SDS011;59706;45.634;11.704;2023-04-03T06:59:02;6.30;;;1.90;;
71646;SDS011;59706;45.634;11.704;2023-04-03T07:01:30;5.60;;;1.90;;
71646;SDS011;59706;45.634;11.704;2023-04-03T07:03:58;6.60;;;1.80;;
71646;SDS011;59706;45.634;11.704;2023-04-03T07:06:25;7.60;;;2.20;;
71646;SDS011;59706;45.634;11.704;2023-04-03T07:08:52;7.20;;;2.20;;
71646;SDS011;59706;45.634;11.704;2023-04-03T07:11:20;7.60;;;2.00;;
71646;SDS011;59706;45.634;11.704;2023-04-03T07:13:48;9.10;;;2.40;;
71646;SDS011;59706;45.634;11.704;2023-04-03T07:16:15;7.30;;;2.60;;
71646;SDS011;59706;45.634;11.704;2023-04-03T07:18:42;7.10;;;2.50;;
71646;SDS011;59706;45.634;11.704;2023-04-03T07:21:10;10.10;;;2.80;;
71646;SDS011;59706;45.634;11.704;2023-04-03T07:23:38;9.30;;;2.70;;
71646;SDS011;59706;45.634;11.704;2023-04-03T07:26:06;7.00;;;2.20;;
71646;SDS011;59706;45.634;11.704;2023-04-03T07:28:33;8.00;;;2.30;;
71646;SDS011;59706;45.634;11.704;2023-04-03T07:31:07;9.70;;;3.10;;
71646;SDS011;59706;45.634;11.704;2023-04-03T07:33:37;7.10;;;2.30;;
71646;SDS011;59706;45.634;11.704;2023-04-03T07:36:05;9.30;;;2.20;;
71646;SDS011;59706;45.634;11.704;2023-04-03T07:38:35;7.50;;;2.30;;
71646;SDS011;59706;45.634;11.704;2023-04-03T07:41:03;8.20;;;2.10;;
71646;SDS011;59706;45.634;11.704;2023-04-03T07:43:30;7.60;;;2.10;;
71646;SDS011;59706;45.634;11.704;2023-04-03T07:45:59;8.50;;;2.10;;
71646;SDS011;59706;45.634;11.704;2023-04-03T07:48:27;7.00;;;1.80;;
71646;SDS011;59706;45.634;11.704;2023-04-03T07:50:59;8.80;;;2.30;;
71646;SDS011;59706;45.634;11.704;2023-04-03T07:53:27;7.70;;;2.00;;
71646;SDS011;59706;45.634;11.704;2023-04-03T07:55:56;6.90;;;1.60;;
71646;SDS011;59706;45.634;11.704;2023-04-03T07:58:23;6.60;;;2.20;;
71646;SDS011;59706;45.634;11.704;2023-04-03T08:00:51;7.70;;;2.00;;
71646;SDS011;59706;45.634;11.704;2023-04-03T08:03:19;6.80;;;2.00;;
71646;SDS011;59706;45.634;11.704;2023-04-03T08:05:48;7.00;;;1.90;;
71646;SDS011;59706;45.634;11.704;2023-04-03T08:08:22;6.80;;;1.90;;
71646;SDS011;59706;45.634;11.704;2023-04-03T08:10:53;7.40;;;2.20;;
71646;SDS011;59706;45.634;11.704;2023-04-03T08:13:21;6.50;;;1.40;;
71646;SDS011;59706;45.634;11.704;2023-04-03T08:15:49;6.50;;;1.80;;
71646;SDS011;59706;45.634;11.704;2023-04-03T08:18:16;6.40;;;1.50;;
71646;SDS011;59706;45.634;11.704;2023-04-03T08:20:47;5.60;;;1.30;;
71646;SDS011;59706;45.634;11.704;2023-04-03T08:23:15;6.30;;;1.60;;
71646;SDS011;59706;45.634;11.704;2023-04-03T08:25:43;6.00;;;2.10;;
71646;SDS011;59706;45.634;11.704;2023-04-03T08:28:29;6.10;;;1.80;;
71646;SDS011;59706;45.634;11.704;2023-04-03T08:31:01;6.10;;;1.70;;
71646;SDS011;59706;45.634;11.704;2023-04-03T08:33:31;5.50;;;1.40;;
71646;SDS011;59706;45.634;11.704;2023-04-03T08:36:00;6.10;;;1.60;;
71646;SDS011;59706;45.634;11.704;2023-04-03T08:38:27;6.90;;;2.20;;
71646;SDS011;59706;45.634;11.704;2023-04-03T08:47:37;6.80;;;2.00;;
71646;SDS011;59706;45.634;11.704;2023-04-03T08:50:24;5.50;;;1.50;;
71646;SDS011;59706;45.634;11.704;2023-04-03T08:53:20;5.20;;;1.60;;
71646;SDS011;59706;45.634;11.704;2023-04-03T08:56:10;7.20;;;1.50;;
71646;SDS011;59706;45.634;11.704;2023-04-03T08:58:55;7.60;;;1.60;;
71646;SDS011;59706;45.634;11.704;2023-04-03T09:01:35;5.80;;;1.60;;
71646;SDS011;59706;45.634;11.704;2023-04-03T09:04:13;7.50;;;2.00;;
71646;SDS011;59706;45.634;11.704;2023-04-03T09:06:45;6.80;;;1.80;;
71646;SDS011;59706;45.634;11.704;2023-04-03T09:09:41;7.20;;;2.10;;
71646;SDS011;59706;45.634;11.704;2023-04-03T09:12:25;4.70;;;1.20;;
71646;SDS011;59706;45.634;11.704;2023-04-03T09:26:04;7.70;;;2.00;;
71646;SDS011;59706;45.634;11.704;2023-04-03T09:28:35;9.50;;;2.00;;
71646;SDS011;59706;45.634;11.704;2023-04-03T09:31:35;5.70;;;1.70;;
71646;SDS011;59706;45.634;11.704;2023-04-03T09:34:08;6.10;;;1.90;;
71646;SDS011;59706;45.634;11.704;2023-04-03T09:36:50;6.70;;;1.50;;
71646;SDS011;59706;45.634;11.704;2023-04-03T09:39:22;9.60;;;2.50;;
71646;SDS011;59706;45.634;11.704;2023-04-03T09:42:03;5.90;;;1.50;;
71646;SDS011;59706;45.634;11.704;2023-04-03T09:44:37;7.50;;;3.20;;
71646;SDS011;59706;45.634;11.704;2023-04-03T09:47:27;7.00;;;2.10;;
71646;SDS011;59706;45.634;11.704;2023-04-03T09:53:06;7.40;;;1.60;;
71646;SDS011;59706;45.634;11.704;2023-04-03T09:55:42;6.40;;;1.80;;
71646;SDS011;59706;45.634;11.704;2023-04-03T09:58:27;7.00;;;2.10;;
71646;SDS011;59706;45.634;11.704;2023-04-03T10:01:01;6.90;;;2.40;;
71646;SDS011;59706;45.634;11.704;2023-04-03T10:06:03;6.30;;;2.00;;
71646;SDS011;59706;45.634;11.704;2023-04-03T10:08:36;7.80;;;2.10;;
71646;SDS011;59706;45.634;11.704;2023-04-03T10:11:15;8.30;;;2.30;;
71646;SDS011;59706;45.634;11.704;2023-04-03T10:13:55;5.30;;;1.70;;
71646;SDS011;59706;45.634;11.704;2023-04-03T10:19:03;9.00;;;2.30;;
71646;SDS011;59706;45.634;11.704;2023-04-03T10:21:57;8.20;;;2.10;;
71646;SDS011;59706;45.634;11.704;2023-04-03T10:27:18;6.00;;;2.00;;
71646;SDS011;59706;45.634;11.704;2023-04-03T10:54:00;6.40;;;2.00;;
71646;SDS011;59706;45.634;11.704;2023-04-03T10:59:33;7.70;;;2.50;;
71646;SDS011;59706;45.634;11.704;2023-04-03T11:02:26;6.00;;;2.20;;
71646;SDS011;59706;45.634;11.704;2023-04-03T11:05:01;8.40;;;2.70;;
71646;SDS011;59706;45.634;11.704;2023-04-03T11:08:02;8.60;;;2.50;;
71646;SDS011;59706;45.634;11.704;2023-04-03T11:10:42;7.50;;;2.20;;
71646;SDS011;59706;45.634;11.704;2023-04-03T11:16:54;6.40;;;2.20;;
71646;SDS011;59706;45.634;11.704;2023-04-03T11:23:03;6.70;;;2.40;;
71646;SDS011;59706;45.634;11.704;2023-04-03T11:25:53;7.20;;;2.20;;
71646;SDS011;59706;45.634;11.704;2023-04-03T11:28:22;6.90;;;2.50;;
71646;SDS011;59706;45.634;11.704;2023-04-03T11:30:57;9.30;;;2.40;;
71646;SDS011;59706;45.634;11.704;2023-04-03T11:34:03;7.10;;;2.20;;
71646;SDS011;59706;45.634;11.704;2023-04-03T11:36:44;7.70;;;2.30;;
71646;SDS011;59706;45.634;11.704;2023-04-03T11:42:07;8.60;;;2.30;;
71646;SDS011;59706;45.634;11.704;2023-04-03T11:50:47;7.50;;;2.50;;
71646;SDS011;59706;45.634;11.704;2023-04-03T11:58:27;6.60;;;2.10;;
71646;SDS011;59706;45.634;11.704;2023-04-03T12:02:23;6.30;;;2.30;;
71646;SDS011;59706;45.634;11.704;2023-04-03T12:04:25;7.00;;;2.30;;
71646;SDS011;59706;45.634;11.704;2023-04-03T12:07:00;7.20;;;2.60;;
71646;SDS011;59706;45.634;11.704;2023-04-03T12:09:58;8.70;;;2.40;;
71646;SDS011;59706;45.634;11.704;2023-04-03T12:12:35;7.40;;;2.30;;
71646;SDS011;59706;45.634;11.704;2023-04-03T12:15:49;9.10;;;2.50;;
71646;SDS011;59706;45.634;11.704;2023-04-03T12:18:55;8.00;;;2.60;;
71646;SDS011;59706;45.634;11.704;2023-04-03T12:24:16;6.50;;;2.50;;
71646;SDS011;59706;45.634;11.704;2023-04-03T12:35:05;7.90;;;2.20;;
71646;SDS011;59706;45.634;11.704;2023-04-03T12:38:14;7.90;;;2.20;;
71646;SDS011;59706;45.634;11.704;2023-04-03T12:41:18;7.90;;;2.50;;
71646;SDS011;59706;45.634;11.704;2023-04-03T12:46:50;6.60;;;2.30;;
71646;SDS011;59706;45.634;11.704;2023-04-03T12:49:33;7.40;;;2.40;;
71646;SDS011;59706;45.634;11.704;2023-04-03T12:52:17;6.90;;;2.30;;
71646;SDS011;59706;45.634;11.704;2023-04-03T12:55:02;6.90;;;2.10;;
71646;SDS011;59706;45.634;11.704;2023-04-03T12:57:33;8.00;;;2.00;;
71646;SDS011;59706;45.634;11.704;2023-04-03T13:00:36;7.80;;;2.20;;
71646;SDS011;59706;45.634;11.704;2023-04-03T13:03:30;6.90;;;2.20;;
71646;SDS011;59706;45.634;11.704;2023-04-03T13:06:21;7.30;;;2.20;;
71646;SDS011;59706;45.634;11.704;2023-04-03T13:09:00;6.20;;;1.90;;
71646;SDS011;59706;45.634;11.704;2023-04-03T13:11:32;5.40;;;2.00;;
71646;SDS011;59706;45.634;11.704;2023-04-03T13:14:04;6.90;;;2.30;;
71646;SDS011;59706;45.634;11.704;2023-04-03T13:16:33;7.00;;;2.20;;
71646;SDS011;59706;45.634;11.704;2023-04-03T13:19:00;7.00;;;2.20;;
71646;SDS011;59706;45.634;11.704;2023-04-03T13:21:30;7.30;;;2.50;;
71646;SDS011;59706;45.634;11.704;2023-04-03T13:23:59;7.70;;;2.50;;
71646;SDS011;59706;45.634;11.704;2023-04-03T13:26:29;8.20;;;2.80;;
71646;SDS011;59706;45.634;11.704;2023-04-03T13:29:02;7.00;;;2.10;;
71646;SDS011;59706;45.634;11.704;2023-04-03T13:31:35;5.50;;;2.30;;
71646;SDS011;59706;45.634;11.704;2023-04-03T13:34:22;9.00;;;3.00;;
71646;SDS011;59706;45.634;11.704;2023-04-03T13:39:23;6.60;;;2.30;;
71646;SDS011;59706;45.634;11.704;2023-04-03T13:41:55;6.40;;;2.30;;
71646;SDS011;59706;45.634;11.704;2023-04-03T13:46:51;8.30;;;2.60;;
71646;SDS011;59706;45.634;11.704;2023-04-03T13:49:30;6.20;;;2.40;;
71646;SDS011;59706;45.634;11.704;2023-04-03T13:55:26;6.50;;;2.60;;
71646;SDS011;59706;45.634;11.704;2023-04-03T13:57:59;5.60;;;2.10;;
71646;SDS011;59706;45.634;11.704;2023-04-03T14:00:48;6.70;;;2.60;;
71646;SDS011;59706;45.634;11.704;2023-04-03T14:03:24;6.90;;;2.50;;
71646;SDS011;59706;45.634;11.704;2023-04-03T14:06:00;12.20;;;4.90;;
71646;SDS011;59706;45.634;11.704;2023-04-03T14:08:28;6.90;;;3.10;;
71646;SDS011;59706;45.634;11.704;2023-04-03T14:10:55;6.10;;;2.20;;
71646;SDS011;59706;45.634;11.704;2023-04-03T14:13:23;6.80;;;2.60;;
71646;SDS011;59706;45.634;11.704;2023-04-03T14:15:51;6.30;;;2.60;;
71646;SDS011;59706;45.634;11.704;2023-04-03T14:18:20;6.40;;;2.80;;
71646;SDS011;59706;45.634;11.704;2023-04-03T14:20:47;8.10;;;3.60;;
71646;SDS011;59706;45.634;11.704;2023-04-03T14:23:15;13.00;;;6.40;;
71646;SDS011;59706;45.634;11.704;2023-04-03T14:25:42;17.10;;;7.80;;
71646;SDS011;59706;45.634;11.704;2023-04-03T14:28:37;8.00;;;3.00;;
71646;SDS011;59706;45.634;11.704;2023-04-03T14:31:06;6.30;;;2.30;;
71646;SDS011;59706;45.634;11.704;2023-04-03T14:33:33;6.70;;;2.60;;
71646;SDS011;59706;45.634;11.704;2023-04-03T14:36:10;7.00;;;2.10;;
71646;SDS011;59706;45.634;11.704;2023-04-03T14:38:38;7.50;;;1.90;;
71646;SDS011;59706;45.634;11.704;2023-04-03T14:41:06;6.40;;;2.30;;
71646;SDS011;59706;45.634;11.704;2023-04-03T14:43:33;7.60;;;1.80;;
71646;SDS011;59706;45.634;11.704;2023-04-03T14:46:00;6.20;;;2.00;;
71646;SDS011;59706;45.634;11.704;2023-04-03T14:48:29;5.30;;;1.60;;
71646;SDS011;59706;45.634;11.704;2023-04-03T14:50:56;6.00;;;1.80;;
71646;SDS011;59706;45.634;11.704;2023-04-03T14:53:24;6.70;;;1.90;;
71646;SDS011;59706;45.634;11.704;2023-04-03T14:55:51;7.90;;;1.50;;
71646;SDS011;59706;45.634;11.704;2023-04-03T14:58:20;7.10;;;1.50;;
71646;SDS011;59706;45.634;11.704;2023-04-03T15:00:47;9.00;;;1.70;;
71646;SDS011;59706;45.634;11.704;2023-04-03T15:03:20;9.00;;;1.50;;
71646;SDS011;59706;45.634;11.704;2023-04-03T15:05:49;5.60;;;1.20;;
71646;SDS011;59706;45.634;11.704;2023-04-03T15:08:46;6.90;;;1.30;;
71646;SDS011;59706;45.634;11.704;2023-04-03T15:11:14;9.20;;;1.10;;
71646;SDS011;59706;45.634;11.704;2023-04-03T15:13:42;9.50;;;1.50;;
71646;SDS011;59706;45.634;11.704;2023-04-03T15:16:17;7.20;;;1.30;;
71646;SDS011;59706;45.634;11.704;2023-04-03T15:18:46;4.60;;;1.10;;
71646;SDS011;59706;45.634;11.704;2023-04-03T15:21:14;7.40;;;2.30;;
71646;SDS011;59706;45.634;11.704;2023-04-03T15:23:42;8.20;;;1.10;;
71646;SDS011;59706;45.634;11.704;2023-04-03T15:26:10;6.40;;;1.30;;
71646;SDS011;59706;45.634;11.704;2023-04-03T15:29:01;6.40;;;1.10;;
71646;SDS011;59706;45.634;11.704;2023-04-03T15:31:30;8.60;;;1.40;;
71646;SDS011;59706;45.634;11.704;2023-04-03T15:33:58;6.60;;;1.40;;
71646;SDS011;59706;45.634;11.704;2023-04-03T15:36:26;6.00;;;1.30;;
71646;SDS011;59706;45.634;11.704;2023-04-03T15:38:53;7.10;;;1.40;;
71646;SDS011;59706;45.634;11.704;2023-04-03T15:41:20;5.50;;;1.40;;
71646;SDS011;59706;45.634;11.704;2023-04-03T15:43:48;6.30;;;1.50;;
71646;SDS011;59706;45.634;11.704;2023-04-03T15:46:15;7.70;;;1.60;;
71646;SDS011;59706;45.634;11.704;2023-04-03T15:48:42;5.60;;;1.30;;
71646;SDS011;59706;45.634;11.704;2023-04-03T15:51:10;5.90;;;1.50;;
71646;SDS011;59706;45.634;11.704;2023-04-03T15:53:37;6.30;;;1.50;;
71646;SDS011;59706;45.634;11.704;2023-04-03T15:56:05;6.60;;;1.40;;
71646;SDS011;59706;45.634;11.704;2023-04-03T15:58:35;7.40;;;2.20;;
71646;SDS011;59706;45.634;11.704;2023-04-03T16:01:02;8.60;;;1.90;;
71646;SDS011;59706;45.634;11.704;2023-04-03T16:03:29;7.90;;;1.50;;
71646;SDS011;59706;45.634;11.704;2023-04-03T16:05:57;6.30;;;1.70;;
71646;SDS011;59706;45.634;11.704;2023-04-03T16:08:24;7.00;;;1.20;;
71646;SDS011;59706;45.634;11.704;2023-04-03T16:10:51;6.90;;;1.30;;
71646;SDS011;59706;45.634;11.704;2023-04-03T16:13:18;7.50;;;1.40;;
71646;SDS011;59706;45.634;11.704;2023-04-03T16:15:46;8.80;;;1.60;;
71646;SDS011;59706;45.634;11.704;2023-04-03T16:18:14;7.60;;;1.50;;
71646;SDS011;59706;45.634;11.704;2023-04-03T16:20:44;7.70;;;1.40;;
71646;SDS011;59706;45.634;11.704;2023-04-03T16:23:11;5.70;;;1.30;;
71646;SDS011;59706;45.634;11.704;2023-04-03T16:25:39;6.50;;;1.50;;
71646;SDS011;59706;45.634;11.704;2023-04-03T16:28:12;7.50;;;1.90;;
71646;SDS011;59706;45.634;11.704;2023-04-03T16:30:40;7.90;;;2.10;;
71646;SDS011;59706;45.634;11.704;2023-04-03T16:33:09;7.60;;;1.90;;
71646;SDS011;59706;45.634;11.704;2023-04-03T16:35:36;9.00;;;1.90;;
71646;SDS011;59706;45.634;11.704;2023-04-03T16:38:03;6.70;;;2.30;;
71646;SDS011;59706;45.634;11.704;2023-04-03T16:40:31;10.70;;;3.20;;
71646;SDS011;59706;45.634;11.704;2023-04-03T16:43:01;6.60;;;2.00;;
71646;SDS011;59706;45.634;11.704;2023-04-03T16:45:28;9.20;;;2.30;;